Main page
METAR-TAF:

METAR-TAF

Airports :

Penn Valley Airport

Selinsgrove, Pennsylvania, United States

latitude: 40-49-09N, longitude: 076-51-58W, elevation: 449 ft

Current weather observation

The report was made 1 hour and 0 minutes ago, at 01:53 UTC
Wind 8 mph from the South
Temperature 37°F
Humidity 65%
Pressure 30.28 in. Hg
Visibility: 10 miles
Clear sky

METAR: KSEG 090153Z AUTO 18007KT 10SM CLR 03/M03 A3028 RMK AO2 SLP258 T00331028

Time: 21:53 (02:53 UTC)


TAF: missing

Weather observations and forecasts of more than 4000 airports (METAR and TAF reports).

The available stations are represented by yellow and red dots on the map.

Hover mouse over dot to see the name of the station.

Then click to see weather observations and forecasts.

To change the map : click on the green buttons with a black cross to zoom in, on the green button with a dash to zoom out, or on the green arrows for adjacent maps.


METAR-TAF: